• Join FlightAware (Why Join?)
  • Login
  • US Flag 
07:10PM EDT


 

Airport Tracker/Info


-or-


 

Live Flight TrackerFlight Track Log ✈ DAL268 ✈ 14-Oct-2013 ✈ KSFO - KJFK

Flight Track Log - Related Links

Times and Time Zones

All times are in EDT time to prevent confusion due to time zone crossing. See the DAL268 flight status page for this flight to view local times or setup timezone preferences in your user account.

Time Position Orientation Groundspeed Altitude Reporting Facility
EDT Latitude Longitude Course Direction KTS MPH feet Rate Location/Type
02:32PM 37.6111 -122.3780 360° North 98 113  Level FlightAware ADS-B
02:33PM 37.6242 -122.3690 29° Northeast 168 193 960 Level FlightAware ADS-B
02:33PM 37.6303 -122.3650 27° Northeast 167 192 500 2,820 Climbing FlightAware ADS-B
02:33PM 37.6376 -122.3590 33° Northeast 167 192 1,000 2,580 Climbing FlightAware ADS-B
02:33PM 37.6396 -122.3560 50° Northeast 165 190 1,200 2,520 Climbing FlightAware ADS-B
02:33PM 37.6451 -122.3480 49° Northeast 169 194 1,600 2,100 Climbing FlightAware ADS-B
02:33PM 37.6501 -122.3410 48° Northeast 180 207 1,900 2,100 Climbing FlightAware ADS-B
02:34PM 37.6564 -122.3330 45° Northeast 191 220 2,300 1,920 Climbing FlightAware ADS-B
02:34PM 37.6661 -122.3190 49° Northeast 214 246 2,700 1,560 Climbing FlightAware ADS-B
02:34PM 37.6769 -122.3040 48° Northeast 236 272 3,100 1,740 Climbing FlightAware ADS-B
02:34PM 37.6887 -122.2880 47° Northeast 255 293 3,600 2,520 Climbing FlightAware ADS-B
02:35PM 37.7046 -122.2660 48° Northeast 266 306 4,600 3,480 Climbing FlightAware ADS-B
02:35PM 37.7176 -122.2460 51° Northeast 265 305 5,700 3,480 Climbing FlightAware ADS-B
02:35PM 37.7310 -122.2260 50° Northeast 266 306 6,600 3,360 Climbing FlightAware ADS-B
02:35PM 37.7354 -122.2180 55° Northeast 269 310 7,000 3,480 Climbing FlightAware ADS-B
02:35PM 37.7392 -122.2090 62° Northeast 272 313 7,300 2,820 Climbing FlightAware ADS-B
02:36PM 37.7446 -122.1930 67° East 276 318 7,800 2,880 Climbing FlightAware ADS-B
02:36PM 37.7519 -122.1680 70° East 282 325 8,600 3,000 Climbing FlightAware ADS-B
02:36PM 37.7588 -122.1450 69° East 286 329 9,400 2,580 Climbing FlightAware ADS-B
02:37PM 37.7728 -122.0950 70° East 307 353 10,600 1,860 Climbing FlightAware ADS-B
02:37PM 37.7880 -122.0410 70° East 342 394 11,300 1,320 Climbing FlightAware ADS-B
02:38PM 37.8053 -121.9800 70° East 369 425 12,000 1,680 Climbing FlightAware ADS-B
02:38PM 37.8273 -121.9010 71° East 382 440 13,300 2,280 Climbing FlightAware ADS-B
02:39PM 37.8487 -121.8240 71° East 394 453 14,800 2,400 Climbing FlightAware ADS-B
02:39PM 37.8676 -121.7570 70° East 400 460 16,000 2,340 Climbing FlightAware ADS-B
02:40PM 37.8866 -121.6880 71° East 407 468 17,200 2,160 Climbing FlightAware ADS-B
02:40PM 37.9058 -121.6200 70° East 414 476 18,200 1,920 Climbing FlightAware ADS-B
02:41PM 37.9269 -121.5430 71° East 422 486 19,300 2,040 Climbing FlightAware ADS-B
02:41PM 37.9468 -121.4710 71° East 429 494 20,400 1,920 Climbing FlightAware ADS-B
02:42PM 37.9672 -121.3970 71° East 437 503 21,300 1,800 Climbing FlightAware ADS-B
02:43PM 37.9990 -121.2800 71° East 446 513 22,800 1,800 Climbing FlightAware
02:43PM 38.0230 -121.1930 71° East 454 522 23,800 1,620 Climbing FlightAware
02:44PM 38.0460 -121.1080 71° East 460 529 24,700 1,620 Climbing FlightAware
02:44PM 38.0690 -121.0260 70° East 464 534 25,600 1,500 Climbing FlightAware
02:45PM 38.0930 -120.9310 72° East 470 541 26,500 1,440 Climbing FlightAware
02:46PM 38.1170 -120.8300 73° East 478 550 27,400 1,380 Climbing FlightAware
02:46PM 38.1370 -120.7440 74° East 483 556 28,100 1,200 Climbing FlightAware
02:47PM 38.1600 -120.6490 73° East 486 559 28,800 1,620 Climbing FlightAware
02:47PM 38.1840 -120.5490 73° East 479 551 30,100 1,920 Climbing FlightAware
02:48PM 38.2050 -120.4590 73° East 475 547 31,100 1,620 Climbing FlightAware
02:49PM 38.2280 -120.3620 73° East 475 547 32,000 1,380 Climbing FlightAware
02:49PM 38.2500 -120.2690 73° East 472 543 32,800 1,320 Climbing FlightAware
02:50PM 38.2730 -120.1720 73° East 472 543 33,600 1,320 Climbing FlightAware
02:50PM 38.2684 -120.1919 254° West 473 544 33,800 1,200 Climbing FlightAware ADS-B (KAHC)
02:51PM 38.3140 -119.9990 73° East 470 541 35,000 720 Climbing FlightAware
02:51PM 38.3360 -119.9040 74° East 468 539 35,000  Level FlightAware
02:52PM 38.3540 -119.8240 74° East 469 540 35,000  Level FlightAware
02:53PM 38.3748 -119.7337 74° East 472 543 35,000  Level FlightAware ADS-B (KAHC)
02:53PM 38.4008 -119.6204 74° East 477 549 35,000  Level FlightAware ADS-B (KAHC)
02:54PM 38.4212 -119.5315 74° East 478 550 35,000  Level FlightAware ADS-B (KAHC)
02:54PM 38.4443 -119.4297 74° East 478 550 35,000  Level FlightAware ADS-B (KAHC)
02:55PM 38.4644 -119.3408 74° East 478 550 35,000  Level FlightAware ADS-B (KAHC)
02:55PM 38.4833 -119.2572 74° East 476 548 35,000  Level FlightAware ADS-B (KAHC)
02:56PM 38.5045 -119.1473 76° East 480 552 35,000  Level FlightAware ADS-B (KAHC)
02:57PM 38.5173 -119.0362 82° East 480 552 35,000  Level FlightAware ADS-B (KAHC)
02:57PM 38.5271 -118.9371 83° East 481 554 35,000  Level FlightAware ADS-B (KAHC)
02:58PM 38.5450 -118.7520 83° East 479 551 35,000  Level FlightAware
02:59PM 38.5570 -118.6330 83° East 479 551 35,000  Level FlightAware
03:00PM 38.5660 -118.5400 83° East 480 552 35,000  Level FlightAware
03:00PM 38.5750 -118.4430 83° East 481 554 35,000  Level FlightAware
03:01PM 38.5850 -118.3410 83° East 482 555 35,000  Level FlightAware
03:01PM 38.5930 -118.2510 83° East 483 556 35,000  Level FlightAware
03:02PM 38.6040 -118.1390 83° East 484 557 35,000  Level FlightAware
03:03PM 38.6110 -118.0570 84° East 484 557 35,000  Level FlightAware
03:03PM 38.6210 -117.9630 82° East 484 557 35,000  Level FlightAware
03:04PM 38.6290 -117.8760 83° East 484 557 35,000  Level FlightAware
03:04PM 38.6370 -117.7890 83° East 484 557 35,000  Level FlightAware
03:05PM 38.6460 -117.7020 82° East 484 557 35,000  Level FlightAware
03:06PM 38.6540 -117.6150 83° East 484 557 35,000  Level FlightAware
03:06PM 38.6620 -117.5250 83° East 484 557 35,000  Level FlightAware
03:07PM 38.6710 -117.4360 83° East 484 557 35,000  Level FlightAware
03:07PM 38.6790 -117.3480 83° East 484 557 35,000  Level FlightAware
03:08PM 38.6870 -117.2640 83° East 484 557 35,000  Level FlightAware
03:09PM 38.6960 -117.1740 83° East 484 557 35,000  Level FlightAware
03:09PM 38.7040 -117.0870 83° East 484 557 35,000  Level FlightAware
03:10PM 38.7130 -117.0000 82° East 484 557 35,000  Level FlightAware
03:10PM 38.7210 -116.9130 83° East 484 557 35,000  Level FlightAware
03:11PM 38.7290 -116.8300 83° East 484 557 35,000  Level FlightAware
03:12PM 38.7370 -116.7430 83° East 484 557 35,000  Level FlightAware
03:12PM 38.7460 -116.6560 82° East 484 557 35,000  Level FlightAware
03:14PM 38.8431 -116.1772 82° East 490 564 35,000  Level Salt Lake Center
03:15PM 38.8669 -116.0042 80° East 492 566 35,000  Level Salt Lake Center
03:16PM 38.8903 -115.8325 80° East 489 563 35,000  Level Salt Lake Center
03:17PM 38.9150 -115.6597 80° East 491 565 35,000  Level Salt Lake Center
03:18PM 38.9386 -115.4861 80° East 494 568 35,000  Level Salt Lake Center
03:19PM 38.9642 -115.3028 80° East 499 574 35,000  Level Salt Lake Center
03:20PM 38.9869 -115.1275 80° East 499 574 35,000  Level Salt Lake Center
03:21PM 39.0106 -114.9511 80° East 501 577 35,000  Level Salt Lake Center
03:22PM 39.0378 -114.7400 81° East 500 575 35,000  Level Salt Lake Center
03:27PM 39.1548 -113.7968 81° East 506 582 35,000  Level FlightAware ADS-B (KPVU)
03:28PM 39.1663 -113.7009 81° East 506 582 35,000  Level FlightAware ADS-B (KPVU)
03:28PM 39.1801 -113.5838 81° East 506 582 35,000  Level FlightAware ADS-B (KPVU)
03:29PM 39.1920 -113.4790 82° East 504 580 35,000  Level FlightAware
03:29PM 39.1978 -113.4326 81° East 505 581 35,000  Level FlightAware ADS-B (KPVU)
03:30PM 39.2078 -113.3464 81° East 504 580 35,000  Level FlightAware ADS-B (KPVU)
03:30PM 39.2160 -113.2890 80° East 504 580 35,000  Level FlightAware
03:30PM 39.2217 -113.2258 83° East 505 581 35,000  Level FlightAware ADS-B (KPVU)
03:31PM 39.2347 -113.1127 82° East 504 580 35,000  Level FlightAware ADS-B (KPVU)
03:31PM 39.2442 -113.0290 82° East 504 580 35,000  Level FlightAware ADS-B
03:32PM 39.2543 -112.9400 82° East 504 580 35,000  Level FlightAware ADS-B
03:32PM 39.2555 -112.9290 82° East 504 580 35,000  Level FlightAware ADS-B (KPVU)
03:32PM 39.2645 -112.8490 82° East 504 580 35,000  Level FlightAware ADS-B
03:33PM 39.2744 -112.7590 82° East 504 580 35,000  Level FlightAware ADS-B
03:33PM 39.2846 -112.6670 82° East 503 579 35,000  Level FlightAware ADS-B
03:34PM 39.2949 -112.5730 82° East 504 580 35,000  Level FlightAware ADS-B
03:34PM 39.2953 -112.5683 84° East 504 580 35,000  Level FlightAware ADS-B (KPVU)
03:34PM 39.2989 -112.5110 85° East 506 582 35,000  Level FlightAware ADS-B
03:34PM 39.2994 -112.4910 88° East 506 582 35,000  Level FlightAware ADS-B
03:35PM 39.2995 -112.4768 90° East 506 582 35,000  Level FlightAware ADS-B (KPVU)
03:35PM 39.2984 -112.4260 92° East 506 582 35,000  Level FlightAware ADS-B
03:35PM 39.2973 -112.3970 93° East 507 583 35,000  Level FlightAware ADS-B
03:35PM 39.2963 -112.3762 94° East 507 583 35,000  Level FlightAware ADS-B (KPVU)
03:35PM 39.2928 -112.3060 94° East 507 583 35,000  Level FlightAware ADS-B
03:36PM 39.2866 -112.1910 94° East 508 585 35,000  Level FlightAware ADS-B
03:36PM 39.2859 -112.1782 94° East 508 585 35,000  Level FlightAware ADS-B (KPVU)
03:37PM 39.2816 -112.0980 94° East 508 585 35,000  Level FlightAware ADS-B
03:37PM 39.2802 -112.0726 94° East 508 585 35,000  Level FlightAware ADS-B (KPVU)
03:37PM 39.2766 -112.0070 94° East 508 585 35,000  Level FlightAware ADS-B
03:37PM 39.2738 -111.9558 94° East 508 585 35,000  Level FlightAware ADS-B (KPVU)
03:38PM 39.2715 -111.9150 94° East 507 583 35,000  Level FlightAware ADS-B
03:38PM 39.2685 -111.8600 94° East 507 583 35,000  Level FlightAware ADS-B (KPVU)
03:38PM 39.2663 -111.8190 94° East 506 582 35,000  Level FlightAware ADS-B
03:39PM 39.2623 -111.7465 94° East 506 582 35,000  Level FlightAware ADS-B (KPVU)
03:39PM 39.2613 -111.7290 94° East 505 581 35,000  Level FlightAware ADS-B
03:39PM 39.2561 -111.6360 94° East 506 582 35,000  Level FlightAware ADS-B
03:39PM 39.2553 -111.6215 94° East 506 582 35,000  Level FlightAware ADS-B (KPVU)
03:40PM 39.2509 -111.5450 94° East 506 582 35,000  Level FlightAware ADS-B
03:40PM 39.2457 -111.4550 94° East 506 582 35,000  Level FlightAware ADS-B
03:41PM 39.2386 -111.3340 94° East 506 582 35,000  Level FlightAware ADS-B
03:41PM 39.2367 -111.3021 94° East 507 583 35,000  Level FlightAware ADS-B (KMTJ)
03:41PM 39.2332 -111.2440 94° East 506 582 35,000  Level FlightAware ADS-B
03:42PM 39.2319 -111.2211 94° East 506 582 35,000  Level FlightAware ADS-B (KMTJ)
03:42PM 39.2264 -111.1300 94° East 505 581 35,000  Level FlightAware ADS-B
03:42PM 39.2252 -111.1114 95° East 504 580 35,000  Level FlightAware ADS-B (KMTJ)
03:43PM 39.2193 -111.0146 95° East 504 580 35,000  Level FlightAware ADS-B (KMTJ)
03:43PM 39.2135 -110.9227 95° East 503 579 35,000  Level FlightAware ADS-B (KMTJ)
03:44PM 39.2071 -110.8223 95° East 504 580 35,000  Level FlightAware ADS-B (KMTJ)
03:44PM 39.2009 -110.7258 95° East 504 580 35,000  Level FlightAware ADS-B (KMTJ)
03:45PM 39.1952 -110.6390 95° East 505 581 35,000  Level FlightAware ADS-B (KMTJ)
03:45PM 39.1870 -110.5141 95° East 505 581 35,000  Level FlightAware ADS-B (KMTJ)
03:46PM 39.1821 -110.4392 95° East 504 580 35,000  Level FlightAware ADS-B (KMTJ)
03:46PM 39.1751 -110.3358 95° East 505 581 35,000  Level FlightAware ADS-B (KMTJ)
03:47PM 39.1687 -110.2427 95° East 506 582 35,000  Level FlightAware ADS-B (KMTJ)
03:48PM 39.1610 -110.1310 95° East 507 583 35,000  Level FlightAware
03:48PM 39.1559 -110.0599 95° East 508 585 35,000  Level FlightAware ADS-B (KMTJ)
03:48PM 39.1490 -109.9625 95° East 508 585 35,000  Level FlightAware ADS-B (KMTJ)
03:49PM 39.1421 -109.8661 95° East 510 587 35,000  Level FlightAware ADS-B (KMTJ)
03:50PM 39.1353 -109.7715 95° East 510 587 35,000  Level FlightAware ADS-B (KMTJ)
03:50PM 39.1286 -109.6809 95° East 510 587 35,000  Level FlightAware ADS-B (KMTJ)
03:51PM 39.1219 -109.5910 95° East 511 588 35,000  Level FlightAware ADS-B (KMTJ)
03:51PM 39.1151 -109.4997 95° East 511 588 35,000  Level FlightAware ADS-B (KMTJ)
03:52PM 39.1086 -109.4136 96° East 511 588 35,000  Level FlightAware ADS-B (KMTJ)
03:52PM 39.1011 -109.3159 96° East 512 589 35,000  Level FlightAware ADS-B (KMTJ)
03:53PM 39.0945 -109.2305 96° East 513 590 35,000  Level FlightAware ADS-B (KMTJ)
03:53PM 39.0867 -109.1297 96° East 515 593 35,000  Level FlightAware ADS-B (KMTJ)
03:54PM 39.0769 -109.0064 96° East 516 594 35,000  Level FlightAware ADS-B (KMTJ)
03:54PM 39.0694 -108.9138 96° East 517 595 35,000  Level FlightAware ADS-B (KMTJ)
03:55PM 39.0617 -108.8102 95° East 517 595 35,000  Level FlightAware ADS-B (KMTJ)
03:55PM 39.0600 -108.7783 94° East 518 596 35,000  Level FlightAware ADS-B (KMTJ)
03:56PM 39.0566 -108.6794 93° East 518 596 35,000  Level FlightAware ADS-B (KMTJ)
03:56PM 39.0532 -108.5536 92° East 519 597 35,000  Level FlightAware ADS-B (KMTJ)
03:57PM 39.0501 -108.4335 92° East 519 597 35,000  Level FlightAware ADS-B (KMTJ)
03:57PM 39.0476 -108.3395 92° East 520 598 35,000  Level FlightAware ADS-B (KMTJ)
03:58PM 39.0439 -108.2097 92° East 520 598 35,000  Level FlightAware ADS-B (KMTJ)
03:59PM 39.0417 -108.1371 92° East 522 601 35,000  Level FlightAware ADS-B (KMTJ)
03:59PM 39.0380 -108.0181 92° East 523 602 35,000  Level FlightAware ADS-B (KMTJ)
04:00PM 39.0351 -107.9259 92° East 525 604 35,000  Level FlightAware ADS-B (KMTJ)
04:00PM 39.0320 -107.8289 92° East 526 605 35,000  Level FlightAware ADS-B (KMTJ)
04:01PM 39.0289 -107.7352 92° East 527 606 35,000  Level FlightAware ADS-B (KMTJ)
04:01PM 39.0255 -107.6374 92° East 528 608 35,000  Level FlightAware ADS-B (KMTJ)
04:02PM 39.0221 -107.5385 93° East 529 609 35,000  Level FlightAware ADS-B (KMTJ)
04:02PM 39.0187 -107.4431 93° East 531 611 35,000  Level FlightAware ADS-B (KMTJ)
04:03PM 39.0152 -107.3469 93° East 531 611 35,000  Level FlightAware ADS-B (KMTJ)
04:03PM 39.0115 -107.2493 93° East 532 612 35,000  Level FlightAware ADS-B (KMTJ)
04:04PM 39.0080 -107.1562 93° East 531 611 35,000  Level FlightAware ADS-B (KMTJ)
04:04PM 39.0043 -107.0615 93° East 530 610 35,000  Level FlightAware ADS-B (KMTJ)
04:05PM 39.0003 -106.9638 93° East 530 610 35,000  Level FlightAware ADS-B (KMTJ)
04:05PM 38.9966 -106.8723 93° East 532 612 35,000  Level FlightAware ADS-B (KMTJ)
04:06PM 38.9924 -106.7721 93° East 531 611 35,000  Level FlightAware ADS-B (KMTJ)
04:06PM 38.9885 -106.6786 93° East 533 613 35,000  Level FlightAware ADS-B (KMTJ)
04:07PM 38.9843 -106.5796 93° East 534 615 35,000  Level FlightAware ADS-B (KMTJ)
04:07PM 38.9800 -106.4832 93° East 534 615 35,000  Level FlightAware ADS-B (KMTJ)
04:08PM 38.9756 -106.3839 93° East 537 618 35,000  Level FlightAware ADS-B (KMTJ)
04:08PM 38.9711 -106.2850 93° East 539 620 35,000  Level FlightAware ADS-B (KMTJ)
04:09PM 38.9687 -106.2346 93° East 540 621 35,000  Level FlightAware ADS-B (KMTJ)
04:09PM 38.9640 -106.1300 93° East 542 624 35,000  Level FlightAware
04:09PM 38.9636 -106.1264 98° East 543 625 35,000  Level FlightAware ADS-B (KANK)
04:10PM 38.9601 -106.0525 93° East 545 627 35,000  Level FlightAware ADS-B (KANK)
04:10PM 38.9520 -105.8864 94° East 548 631 35,000  Level FlightAware ADS-B (KEIK)
04:11PM 38.9472 -105.7901 94° East 550 633 35,000  Level FlightAware ADS-B (KANK)
04:11PM 38.9430 -105.7083 94° East 552 635 35,000  Level FlightAware ADS-B (KEIK)
04:12PM 38.9366 -105.5828 94° East 554 638 35,000  Level FlightAware ADS-B (KEIK)
04:13PM 38.9308 -105.4721 94° East 556 640 35,000  Level FlightAware ADS-B (KEIK)
04:13PM 38.9220 -105.3180 94° East 560 644 35,000  Level FlightAware
04:13PM 38.9206 -105.2848 93° East 560 644 35,000  Level FlightAware ADS-B (KEIK)
04:14PM 38.9090 -105.0820 94° East 558 642 35,000  Level FlightAware
04:15PM 38.9084 -105.0663 93° East 558 642 35,000  Level FlightAware ADS-B (KEIK)
04:15PM 38.9023 -104.9579 94° East 562 647 35,000  Level FlightAware ADS-B (KEIK)
04:16PM 38.8905 -104.7571 94° East 560 644 35,000  Level FlightAware ADS-B (KEIK)
04:17PM 38.8829 -104.6305 94° East 559 643 35,000  Level FlightAware ADS-B (KEIK)
04:17PM 38.8760 -104.5110 94° East 559 643 35,000  Level FlightAware
04:18PM 38.8686 -104.3980 95° East 560 644 35,000  Level FlightAware ADS-B (KEIK)
04:19PM 38.8600 -104.2615 95° East 560 644 35,000  Level FlightAware ADS-B (KEIK)
04:19PM 38.8530 -104.1580 95° East 558 642 35,000  Level FlightAware
04:20PM 38.8470 -104.0550 94° East 559 643 35,000  Level FlightAware
04:20PM 38.8390 -103.9330 95° East 559 643 35,000  Level FlightAware
04:21PM 38.8310 -103.8110 95° East 559 643 35,000  Level FlightAware
04:21PM 38.8220 -103.6880 95° East 559 643 35,000  Level FlightAware
04:22PM 38.8200 -103.5800 91° East 564 649 35,000  Level FlightAware
04:23PM 38.8240 -103.4580 88° East 566 651 35,000  Level FlightAware
04:23PM 38.8280 -103.3570 87° East 565 650 35,000  Level FlightAware
04:24PM 38.8350 -103.2100 86° East 565 650 35,000  Level FlightAware
04:24PM 38.8390 -103.0980 87° East 567 652 35,000  Level FlightAware
04:25PM 38.8440 -102.9830 87° East 568 654 35,000  Level FlightAware
04:26PM 38.8480 -102.8660 87° East 566 651 35,000  Level FlightAware
04:26PM 38.8530 -102.7290 87° East 564 649 35,000  Level FlightAware
04:27PM 38.8570 -102.6280 87° East 565 650 35,000  Level FlightAware
04:27PM 38.8610 -102.5130 87° East 565 650 35,000  Level FlightAware
04:28PM 38.8650 -102.3860 88° East 565 650 35,000  Level FlightAware
04:29PM 38.8690 -102.2670 87° East 564 649 35,000  Level FlightAware
04:29PM 38.8610 -102.1600 95° East 551 634 35,000  Level FlightAware
04:30PM 38.8500 -102.0540 98° East 553 636 35,000  Level FlightAware
04:30PM 38.8360 -101.9230 98° East 556 640 35,000  Level FlightAware
04:31PM 38.8250 -101.8210 98° East 556 640 35,000  Level FlightAware
04:31PM 38.8130 -101.7050 98° East 555 639 35,000  Level FlightAware
04:32PM 38.7990 -101.5860 99° East 556 640 35,000 300 Level FlightAware
04:33PM 38.7860 -101.4780 99° East 552 635 35,400 1,080 Climbing FlightAware
04:33PM 38.7730 -101.3740 99° East 546 628 36,200 1,380 Climbing FlightAware
04:34PM 38.7550 -101.2510 101° East 542 624 37,100 1,140 Climbing FlightAware
04:34PM 38.7390 -101.1420 101° East 543 625 37,600 900 Climbing FlightAware
04:35PM 38.7230 -101.0310 100° East 542 624 38,200 840 Climbing FlightAware
04:36PM 38.7080 -100.9210 100° East 543 625 38,600 660 Climbing FlightAware
04:36PM 38.6920 -100.8080 100° East 545 627 39,000 300 Climbing FlightAware
04:37PM 38.6770 -100.7030 100° East 544 626 39,000  Level FlightAware
04:37PM 38.6570 -100.5890 103° East 542 624 39,000  Level FlightAware
04:38PM 38.6390 -100.4790 102° East 544 626 39,000  Level FlightAware
04:39PM 38.6190 -100.3640 103° East 549 632 39,000  Level FlightAware
04:39PM 38.6010 -100.2520 102° East 554 638 39,000  Level FlightAware
04:40PM 38.5930 -100.1460 95° East 564 649 39,000  Level FlightAware
04:40PM 38.5950 -100.0250 89° East 571 657 39,000  Level FlightAware
04:41PM 38.6050 -99.9230 83° East 574 661 39,000  Level FlightAware
04:41PM 38.6250 -99.7940 79° East 574 661 39,000  Level FlightAware
04:42PM 38.6500 -99.6270 79° East 571 657 39,000  Level FlightAware
04:43PM 38.6380 -99.7060 259° West 571 657 39,000  Level FlightAware
04:44PM 38.6910 -99.3380 79° East 569 655 39,000  Level FlightAware
04:45PM 38.7160 -99.1660 79° East 579 666 39,000  Level FlightAware
04:45PM 38.7330 -99.0570 79° East 579 666 39,000  Level FlightAware
04:46PM 38.7500 -98.9450 79° East 579 666 39,000  Level FlightAware
04:46PM 38.7720 -98.7830 80° East 581 669 39,000  Level FlightAware
04:47PM 38.7890 -98.6600 80° East 581 669 39,000  Level FlightAware
04:48PM 38.8040 -98.5570 79° East 580 667 39,000  Level FlightAware
04:48PM 38.8210 -98.4320 80° East 577 664 39,000  Level FlightAware
04:49PM 38.8370 -98.3180 80° East 575 662 39,000  Level FlightAware
04:49PM 38.8236 -98.4157 260° West 579 666 39,000  Level FlightAware ADS-B
04:49PM 38.8577 -98.1696 80° East 574 661 39,000  Level FlightAware ADS-B
04:51PM 38.8860 -97.9620 80° East 573 659 39,000  Level FlightAware
04:51PM 38.8895 -97.9355 80° East 572 658 39,000  Level FlightAware ADS-B
04:52PM 38.9170 -97.7310 80° East 570 656 39,000  Level FlightAware
04:52PM 38.9330 -97.6130 80° East 567 652 39,000  Level FlightAware
04:53PM 38.9460 -97.5050 81° East 566 651 39,000  Level FlightAware
04:53PM 38.9620 -97.3800 81° East 566 651 39,000  Level FlightAware
04:54PM 38.9760 -97.2690 81° East 565 650 39,000  Level FlightAware
04:55PM 38.9940 -97.1270 81° East 564 649 39,000  Level FlightAware
04:55PM 39.0070 -97.0210 81° East 563 648 39,000  Level FlightAware
04:56PM 39.0200 -96.9130 81° East 563 648 39,000  Level FlightAware
04:56PM 39.0370 -96.7750 81° East 563 648 39,000  Level FlightAware
04:57PM 39.0500 -96.6690 81° East 563 648 39,000  Level FlightAware
04:58PM 39.0640 -96.5500 81° East 563 648 39,000  Level FlightAware
04:58PM 39.0780 -96.4320 81° East 562 647 39,000  Level FlightAware
04:59PM 39.0900 -96.3280 82° East 562 647 39,000  Level FlightAware
04:59PM 39.1050 -96.2000 81° East 561 646 39,000  Level FlightAware
05:00PM 39.1170 -96.0940 82° East 561 646 39,000  Level FlightAware
05:00PM 39.1280 -95.9980 82° East 561 646 39,000  Level FlightAware
05:01PM 39.1440 -95.8530 82° East 558 642 39,000  Level FlightAware
05:02PM 39.1570 -95.7410 81° East 559 643 39,000  Level FlightAware
05:02PM 39.1720 -95.6020 82° East 558 642 39,000  Level FlightAware
05:03PM 39.1840 -95.4940 82° East 559 643 39,000  Level FlightAware
05:04PM 39.1980 -95.3700 82° East 559 643 39,000  Level FlightAware
05:04PM 39.2100 -95.2520 82° East 558 642 39,000  Level FlightAware
05:05PM 39.2187 -95.1738 82° East 557 641 39,000  Level FlightAware ADS-B
05:05PM 39.2350 -95.0230 82° East 555 639 39,000  Level FlightAware
05:06PM 39.2450 -94.9230 83° East 555 639 39,000  Level FlightAware
05:07PM 39.2590 -94.7878 82° East 555 639 39,000  Level FlightAware ADS-B
05:07PM 39.2700 -94.6770 83° East 553 636 39,000  Level FlightAware
05:08PM 39.2810 -94.5760 82° East 552 635 39,000  Level FlightAware
05:08PM 39.2920 -94.4620 83° East 552 635 39,000  Level FlightAware
05:08PM 39.2957 -94.4263 82° East 553 636 39,000  Level FlightAware ADS-B
05:09PM 39.3072 -94.3106 83° East 552 635 39,000  Level FlightAware ADS-B
05:10PM 39.3270 -94.1110 83° East 550 633 39,000  Level FlightAware
05:10PM 39.3291 -94.0870 84° East 550 633 39,000  Level FlightAware ADS-B
05:11PM 39.3530 -93.8400 83° East 551 634 39,000  Level FlightAware
05:12PM 39.3625 -93.7358 83° East 552 635 39,000  Level FlightAware ADS-B
05:12PM 39.3719 -93.6353 83° East 552 635 39,000  Level FlightAware ADS-B
05:13PM 39.3850 -93.4950 83° East 550 633 39,000  Level FlightAware
05:14PM 39.3980 -93.3510 83° East 549 632 39,000  Level FlightAware
05:14PM 39.4080 -93.2420 83° East 551 634 39,000  Level FlightAware
05:15PM 39.4180 -93.1230 84° East 552 635 39,000  Level FlightAware
05:16PM 39.4280 -93.0080 84° East 552 635 39,000  Level FlightAware
05:16PM 39.4390 -92.8870 83° East 552 635 39,000  Level FlightAware
05:17PM 39.4470 -92.7930 84° East 554 638 39,000  Level FlightAware
05:17PM 39.4580 -92.6590 84° East 556 640 39,000  Level FlightAware
05:18PM 39.4670 -92.5520 84° East 556 640 39,000  Level FlightAware
05:19PM 39.4770 -92.4320 84° East 556 640 39,000  Level FlightAware
05:19PM 39.4870 -92.3110 84° East 557 641 39,000  Level FlightAware
05:20PM 39.4960 -92.2030 84° East 559 643 39,000  Level FlightAware
05:20PM 39.5050 -92.0820 84° East 558 642 39,000  Level FlightAware
05:21PM 39.5150 -91.9600 84° East 558 642 39,000  Level FlightAware
05:21PM 39.5230 -91.8510 85° East 557 641 39,000  Level FlightAware
05:22PM 39.5320 -91.7340 84° East 556 640 39,000  Level FlightAware
05:23PM 39.5390 -91.6420 84° East 556 640 39,000  Level FlightAware
05:23PM 39.5510 -91.4850 84° East 557 641 39,000  Level FlightAware
05:24PM 39.5590 -91.3780 84° East 558 642 39,000  Level FlightAware
05:25PM 39.5720 -91.2010 85° East 558 642 39,000  Level FlightAware
05:25PM 39.5820 -91.0580 85° East 559 643 39,000  Level FlightAware
05:26PM 39.5890 -90.9580 85° East 557 641 39,000  Level FlightAware
05:27PM 39.5970 -90.8360 85° East 557 641 39,000  Level FlightAware
05:27PM 39.6040 -90.7380 85° East 557 641 39,000  Level FlightAware
05:28PM 39.6130 -90.6010 85° East 555 639 39,000  Level FlightAware
05:28PM 39.6190 -90.4990 86° East 556 640 39,000  Level FlightAware
05:29PM 39.6270 -90.3820 85° East 555 639 39,000  Level FlightAware
05:29PM 39.6350 -90.2580 85° East 556 640 39,000  Level FlightAware
05:30PM 39.6430 -90.1320 85° East 556 640 39,000  Level FlightAware
05:31PM 39.6490 -90.0370 85° East 556 640 39,000  Level FlightAware
05:31PM 39.6570 -89.9040 85° East 556 640 39,000  Level FlightAware
05:32PM 39.6640 -89.7780 86° East 555 639 39,000  Level FlightAware
05:32PM 39.6700 -89.6740 86° East 555 639 39,000  Level FlightAware
05:33PM 39.6770 -89.5540 86° East 555 639 39,000  Level FlightAware
05:34PM 39.6830 -89.4500 86° East 555 639 39,000  Level FlightAware
05:34PM 39.6910 -89.3150 86° East 555 639 39,000  Level FlightAware
05:35PM 39.6970 -89.2060 86° East 555 639 39,000  Level FlightAware
05:35PM 39.7030 -89.0860 86° East 556 640 39,000  Level FlightAware
05:36PM 39.7090 -88.9710 86° East 556 640 39,000  Level FlightAware
05:37PM 39.7150 -88.8610 86° East 556 640 39,000  Level FlightAware
05:37PM 39.7210 -88.7420 86° East 556 640 39,000  Level FlightAware
05:38PM 39.7270 -88.6200 86° East 557 641 39,000  Level FlightAware
05:38PM 39.7320 -88.5140 86° East 558 642 39,000  Level FlightAware
05:39PM 39.7370 -88.3990 87° East 558 642 39,000  Level FlightAware
05:39PM 39.7430 -88.2720 86° East 557 641 39,000  Level FlightAware
05:40PM 39.7480 -88.1710 86° East 558 642 39,000  Level FlightAware
05:41PM 39.7550 -88.0110 87° East 558 642 39,000  Level FlightAware
05:41PM 39.7590 -87.9020 87° East 558 642 39,000  Level FlightAware
05:42PM 39.7640 -87.7840 87° East 558 642 39,000  Level FlightAware
05:43PM 39.7690 -87.6620 87° East 558 642 39,000  Level FlightAware
05:43PM 39.7740 -87.5400 87° East 559 643 39,000  Level FlightAware
05:44PM 39.7790 -87.4310 87° East 559 643 39,000  Level FlightAware
05:44PM 39.7830 -87.3280 87° East 559 643 39,000  Level FlightAware
05:45PM 39.7870 -87.1940 88° East 559 643 39,000  Level FlightAware
05:45PM 39.7920 -87.0780 87° East 559 643 39,000  Level FlightAware
05:46PM 39.7960 -86.9530 88° East 558 642 39,000  Level FlightAware
05:47PM 39.7990 -86.8520 88° East 558 642 39,000  Level FlightAware
05:47PM 39.8030 -86.7370 87° East 558 642 39,000  Level FlightAware
05:48PM 39.8080 -86.5970 87° East 558 642 39,000  Level FlightAware
05:48PM 39.8110 -86.4950 88° East 558 642 39,000  Level FlightAware
05:49PM 39.8200 -86.3730 84° East 552 635 39,000  Level FlightAware
05:50PM 39.8460 -86.2590 73° East 541 623 39,000  Level FlightAware
05:50PM 39.8670 -86.1540 75° East 549 632 39,000  Level FlightAware
05:51PM 39.8870 -86.0380 77° East 548 631 39,000  Level FlightAware
05:51PM 39.9100 -85.9220 75° East 547 629 39,000  Level FlightAware
05:52PM 39.9300 -85.8210 75° East 545 627 39,000  Level FlightAware
05:52PM 39.9530 -85.7080 75° East 544 626 39,000  Level FlightAware
05:53PM 39.9780 -85.5890 75° East 543 625 39,000  Level FlightAware
05:54PM 40.0000 -85.4870 74° East 541 623 39,000  Level FlightAware
05:54PM 40.0200 -85.3900 75° East 539 620 39,000  Level FlightAware
05:55PM 40.0440 -85.2750 75° East 538 619 39,000  Level FlightAware
05:55PM 40.0680 -85.1580 75° East 537 618 39,000  Level FlightAware
05:56PM 40.0880 -85.0560 76° East 535 616 39,000  Level FlightAware
05:56PM 40.1110 -84.9440 75° East 532 612 39,000  Level FlightAware
05:57PM 40.1300 -84.8460 76° East 528 608 39,000  Level FlightAware
05:57PM 40.1470 -84.7870 69° East 510 587 39,000  Level FlightAware
05:58PM 40.1860 -84.6930 61° Northeast 502 578 39,000  Level FlightAware
05:58PM 40.2220 -84.6060 62° Northeast 502 578 39,000  Level FlightAware
05:59PM 40.2580 -84.5130 63° Northeast 502 578 39,000  Level FlightAware
06:00PM 40.2910 -84.4240 64° Northeast 502 578 39,000  Level FlightAware
06:00PM 40.3310 -84.3160 64° Northeast 500 575 39,000  Level FlightAware
06:01PM 40.3670 -84.2160 65° Northeast 500 575 39,000  Level FlightAware
06:01PM 40.4030 -84.1170 64° Northeast 499 574 39,000  Level FlightAware
06:02PM 40.4440 -84.0100 63° Northeast 496 571 39,000  Level FlightAware
06:03PM 40.4770 -83.9250 63° Northeast 495 570 39,000  Level FlightAware
06:03PM 40.5150 -83.8280 63° Northeast 494 568 39,000  Level FlightAware
06:04PM 40.5510 -83.7340 63° Northeast 493 567 39,000  Level FlightAware
06:04PM 40.5880 -83.6370 63° Northeast 492 566 39,000  Level FlightAware
06:05PM 40.6220 -83.5500 63° Northeast 491 565 39,000  Level FlightAware
06:06PM 40.6590 -83.4510 64° Northeast 491 565 39,000  Level FlightAware
06:06PM 40.6940 -83.3600 63° Northeast 490 564 39,000  Level FlightAware
06:07PM 40.7300 -83.2630 64° Northeast 490 564 39,000  Level FlightAware
06:07PM 40.7640 -83.1730 63° Northeast 490 564 39,000  Level FlightAware
06:08PM 40.8010 -83.0760 63° Northeast 491 565 39,000  Level FlightAware
06:09PM 40.8360 -82.9840 63° Northeast 489 563 39,000  Level FlightAware
06:09PM 40.8720 -82.8860 64° Northeast 489 563 39,000  Level FlightAware
06:10PM 40.9030 -82.8040 63° Northeast 487 560 39,000  Level FlightAware
06:10PM 40.9410 -82.7020 64° Northeast 487 560 39,000  Level FlightAware
06:11PM 40.9570 -82.6580 64° Northeast 487 560 39,000  Level FlightAware
06:11PM 41.0070 -82.5240 64° Northeast 487 560 39,000  Level FlightAware
06:12PM 41.0450 -82.4200 64° Northeast 487 560 39,000  Level FlightAware
06:13PM 41.0750 -82.3370 64° Northeast 487 560 39,000  Level FlightAware
06:13PM 41.1130 -82.2330 64° Northeast 487 560 39,000  Level FlightAware
06:14PM 41.1450 -82.1450 64° Northeast 486 559 39,000  Level FlightAware
06:14PM 41.1810 -82.0480 64° Northeast 484 557 39,000  Level FlightAware
06:15PM 41.2160 -81.9520 64° Northeast 483 556 39,000  Level FlightAware
06:15PM 41.2460 -81.8660 65° Northeast 481 554 39,000 -540 Level FlightAware
06:16PM 41.2800 -81.7720 64° Northeast 481 554 38,400 -1,080 Descending FlightAware
06:17PM 41.3160 -81.6710 65° Northeast 481 554 37,700 -1,200 Descending FlightAware
06:17PM 41.3490 -81.5790 64° Northeast 482 555 37,000 -660 Descending FlightAware
06:18PM 41.3800 -81.4930 64° Northeast 482 555 37,000  Level FlightAware
06:18PM 41.4150 -81.3940 65° Northeast 478 550 37,000  Level FlightAware
06:19PM 41.4500 -81.2970 64° Northeast 480 552 37,000  Level FlightAware
06:20PM 41.4800 -81.2120 65° Northeast 482 555 37,000  Level FlightAware
06:20PM 41.5120 -81.1200 65° Northeast 484 557 37,000  Level FlightAware
06:21PM 41.5480 -81.0170 65° Northeast 486 559 37,000  Level FlightAware
06:21PM 41.5820 -80.9200 65° Northeast 486 559 37,000  Level FlightAware
06:22PM 41.6130 -80.8310 65° Northeast 487 560 37,000  Level FlightAware
06:23PM 41.6480 -80.7280 66° East 487 560 37,000  Level FlightAware
06:23PM 41.6780 -80.6420 65° Northeast 487 560 37,000  Level FlightAware
06:24PM 41.7090 -80.5520 65° Northeast 487 560 37,000  Level FlightAware
06:24PM 41.7450 -80.4480 65° Northeast 485 558 37,000  Level FlightAware
06:25PM 41.7800 -80.3460 65° Northeast 485 558 37,000  Level FlightAware
06:25PM 41.8120 -80.2510 66° East 485 558 37,000  Level FlightAware
06:26PM 41.8420 -80.1630 65° Northeast 485 558 37,000  Level FlightAware
06:27PM 41.8740 -80.0670 66° East 486 559 37,000  Level FlightAware
06:27PM 41.9090 -79.9660 65° Northeast 486 559 37,000  Level FlightAware
06:28PM 41.9370 -79.8820 66° East 485 558 37,000  Level FlightAware
06:28PM 41.9680 -79.7860 66° East 485 558 37,000  Level FlightAware
06:29PM 41.9840 -79.7130 74° East 488 562 37,000  Level FlightAware
06:29PM 41.9900 -79.6380 84° East 491 565 37,000  Level FlightAware
06:30PM 41.9830 -79.5240 95° East 491 565 37,000  Level FlightAware
06:31PM 41.9720 -79.3860 96° East 493 567 37,000  Level FlightAware
06:31PM 41.9650 -79.2930 96° East 493 567 37,000  Level FlightAware
06:32PM 41.9550 -79.1650 96° East 492 566 37,000  Level FlightAware
06:32PM 41.9480 -79.0740 96° East 491 565 37,000  Level FlightAware
06:33PM 41.9410 -78.9570 95° East 490 564 37,000  Level FlightAware
06:33PM 41.9340 -78.8460 95° East 489 563 37,000  Level FlightAware
06:34PM 41.9270 -78.7410 95° East 489 563 37,000  Level FlightAware
06:35PM 41.9210 -78.6390 94° East 488 562 37,000  Level FlightAware
06:35PM 41.9130 -78.5280 95° East 489 563 37,000  Level FlightAware
06:36PM 41.9060 -78.4280 95° East 490 564 37,000  Level FlightAware
06:36PM 41.8990 -78.3290 95° East 490 564 37,000  Level FlightAware
06:37PM 41.8910 -78.2140 95° East 491 565 37,000  Level FlightAware
06:38PM 41.8840 -78.1160 95° East 492 566 37,000  Level FlightAware
06:38PM 41.8760 -78.0050 95° East 492 566 37,000  Level FlightAware
06:39PM 41.8680 -77.8960 96° East 492 566 37,000  Level FlightAware
06:39PM 41.8470 -77.7850 104° East 491 565 37,000  Level FlightAware
06:40PM 41.8210 -77.6820 109° East 491 565 37,000  Level FlightAware
06:41PM 41.7940 -77.5810 110° East 490 564 37,000  Level FlightAware
06:41PM 41.7670 -77.4810 110° East 489 563 37,000  Level FlightAware
06:42PM 41.7440 -77.3960 110° East 489 563 37,000  Level FlightAware
06:42PM 41.7120 -77.2740 109° East 488 562 37,000  Level FlightAware
06:43PM 41.6850 -77.1740 110° East 487 560 37,000  Level FlightAware
06:44PM 41.6570 -77.0730 110° East 487 560 37,000  Level FlightAware
06:44PM 41.6310 -76.9740 109° East 486 559 37,000  Level FlightAware
06:45PM 41.6030 -76.8730 110° East 484 557 37,000  Level FlightAware
06:45PM 41.5760 -76.7750 110° East 482 555 37,000  Level FlightAware
06:46PM 41.5500 -76.6770 109° East 480 552 37,000  Level FlightAware
06:47PM 41.5190 -76.5660 110° East 477 549 37,000  Level FlightAware
06:47PM 41.4970 -76.4860 110° East 476 548 37,000  Level FlightAware
06:48PM 41.4630 -76.3630 110° East 476 548 37,000  Level FlightAware
06:48PM 41.4340 -76.2590 110° East 475 547 37,000 -420 Level FlightAware
06:49PM 41.4060 -76.1600 111° Southeast 478 550 36,500 -1,380 Descending FlightAware
06:50PM 41.3810 -76.0700 110° East 482 555 35,500 -2,280 Descending FlightAware
06:50PM 41.3520 -75.9660 110° East 481 554 33,900 -2,640 Descending FlightAware
06:51PM 41.3260 -75.8770 111° Southeast 481 554 32,400 -3,240 Descending FlightAware
06:51PM 41.2960 -75.7700 110° East 485 558 30,100 -3,840 Descending FlightAware
06:52PM 41.2690 -75.6790 112° Southeast 492 566 27,900 -3,960 Descending FlightAware
06:53PM 41.2300 -75.5600 114° Southeast 494 568 25,200 -3,300 Descending FlightAware
06:53PM 41.1950 -75.4570 114° Southeast 475 547 23,600 -1,920 Descending FlightAware
06:54PM 41.1670 -75.3710 113° Southeast 471 542 23,000 -540 Descending FlightAware
06:54PM 41.1370 -75.2840 115° Southeast 468 539 23,000  Level FlightAware
06:55PM 41.1050 -75.1890 114° Southeast 473 544 23,000  Level FlightAware
06:55PM 41.0740 -75.0990 115° Southeast 473 544 23,000  Level FlightAware
06:56PM 41.0420 -75.0020 114° Southeast 473 544 23,000  Level FlightAware
06:57PM 41.0120 -74.9140 114° Southeast 474 545 23,000 -480 Level FlightAware
06:57PM 40.9900 -74.8150 106° East 463 533 22,500 -960 Descending FlightAware
06:58PM 40.9800 -74.7320 99° East 459 528 22,000 -1,080 Descending FlightAware
06:58PM 40.9690 -74.6250 98° East 456 525 21,300 -1,140 Descending FlightAware
06:59PM 40.9590 -74.5280 98° East 452 520 20,600 -1,200 Descending FlightAware
07:00PM 40.9480 -74.4260 98° East 448 516 19,900 -1,200 Descending FlightAware
07:00PM 40.9390 -74.3460 98° East 428 493 19,300 -780 Descending FlightAware
07:01PM 40.9280 -74.2470 98° East 386 444 19,000 -300 Descending FlightAware
07:01PM 40.9190 -74.1720 99° East 354 407 19,000  Level FlightAware
07:02PM 40.9119 -74.1405 107° East 351 404 19,000  Level FlightAware ADS-B
07:02PM 40.9074 -74.1290 117° Southeast 347 399 19,000 -600 Level FlightAware ADS-B
07:02PM 40.8919 -74.1038 129° Southeast 343 395 18,800 -1,020 Descending FlightAware ADS-B
07:02PM 40.8824 -74.0940 142° Southeast 340 391 18,600 -1,500 Descending FlightAware ADS-B
07:02PM 40.8765 -74.0893 149° Southeast 338 389 18,500 -1,200 Descending FlightAware ADS-B
07:02PM 40.8681 -74.0840 154° Southeast 336 387 18,400 -1,680 Descending FlightAware ADS-B
07:03PM 40.8233 -74.0671 164° South 333 383 17,500 -1,560 Descending FlightAware ADS-B
07:03PM 40.7768 -74.0515 166° South 327 376 16,800 -1,560 Descending FlightAware ADS-B
07:04PM 40.7324 -74.0372 166° South 325 374 15,900 -1,620 Descending FlightAware ADS-B
07:04PM 40.6705 -74.0188 167° South 322 371 14,900 -1,560 Descending FlightAware ADS-B
07:05PM 40.6428 -74.0108 168° South 319 367 14,300 -1,620 Descending FlightAware ADS-B (KSNC)
07:06PM 40.5600 -73.9860 167° South 315 362 12,800 -1,320 Descending FlightAware
07:06PM 40.5380 -73.9750 159° South 312 359 12,700 -180 Descending FlightAware
07:06PM 40.5180 -73.9540 141° Southeast 312 359 12,700 -120 Level FlightAware
07:07PM 40.4830 -73.9130 138° Southeast 308 354 12,600 -900 Descending FlightAware
07:08PM 40.4430 -73.8660 138° Southeast 305 351 11,700 -1,440 Descending FlightAware
07:08PM 40.4050 -73.8230 139° Southeast 301 346 10,900 -1,440 Descending FlightAware
07:09PM 40.3680 -73.7810 139° Southeast 299 344 10,000 -1,500 Descending FlightAware
07:09PM 40.3540 -73.7660 141° Southeast 300 345 9,700 -1,440 Descending FlightAware
07:09PM 40.3350 -73.7450 140° Southeast 298 343 9,300 -1,380 Descending FlightAware
07:10PM 40.3110 -73.7100 132° Southeast 289 333 8,700 -1,320 Descending FlightAware
07:10PM 40.3050 -73.6920 114° Southeast 284 327 8,500 -1,440 Descending FlightAware
07:10PM 40.3040 -73.6890 114° Southeast 281 323 8,400 -1,200 Descending FlightAware
07:10PM 40.3040 -73.6770 90° East 278 320 8,300 -1,320 Descending FlightAware
07:10PM 40.3170 -73.6410 65° Northeast 267 307 7,700 -1,560 Descending FlightAware
07:11PM 40.3290 -73.6310 32° Northeast 266 306 7,400 -1,380 Descending FlightAware
07:11PM 40.3670 -73.6070 26° Northeast 269 310 6,700 -840 Descending FlightAware
07:11PM 40.3840 -73.5960 26° Northeast 267 307 6,700  Level FlightAware
07:12PM 40.4110 -73.5790 26° Northeast 266 306 6,700  Level FlightAware
07:12PM 40.4330 -73.5640 27° Northeast 266 306 6,700  Level FlightAware
07:13PM 40.4640 -73.5440 26° Northeast 266 306 6,700  Level FlightAware
07:13PM 40.4860 -73.5290 27° Northeast 267 307 6,700  Level FlightAware
07:13PM 40.5130 -73.5110 27° Northeast 267 307 6,700 -180 Level FlightAware
07:14PM 40.5360 -73.4960 26° Northeast 266 306 6,600 -600 Descending FlightAware
07:14PM 40.5570 -73.4820 27° Northeast 264 304 6,300 -1,140 Descending FlightAware
07:14PM 40.5750 -73.4700 27° Northeast 264 304 5,900 -1,380 Descending FlightAware
07:15PM 40.5960 -73.4560 27° Northeast 263 303 5,500 -1,380 Descending FlightAware
07:15PM 40.6100 -73.4490 21° North 263 303 5,200 -1,380 Descending FlightAware
07:15PM 40.6170 -73.4470 12° North 263 303 5,100 -1,020 Descending FlightAware
07:15PM 40.6250 -73.4460 North 263 303 5,000 -780 Descending FlightAware
07:15PM 40.6560 -73.4490 356° North 265 305 4,700 -420 Descending FlightAware
07:16PM 40.6810 -73.4510 357° North 265 305 4,700 -180 Level FlightAware
07:16PM 40.7050 -73.4540 355° North 250 288 4,600 -360 Descending FlightAware
07:16PM 40.7230 -73.4560 355° North 243 280 4,500 -660 Descending FlightAware
07:17PM 40.7460 -73.4580 356° North 240 276 4,200 -1,140 Descending FlightAware
07:17PM 40.7590 -73.4610 350° North 241 277 3,900 -1,440 Descending FlightAware
07:17PM 40.7640 -73.4640 336° Northwest 240 276 3,800 -900 Descending FlightAware
07:17PM 40.7700 -73.4690 328° Northwest 238 274 3,700 -240 Descending FlightAware
07:18PM 40.7840 -73.4870 316° Northwest 219 252 3,700  Level FlightAware
07:18PM 40.7970 -73.5040 315° West 213 245 3,700 -540 Level FlightAware
07:18PM 40.8120 -73.5230 316° Northwest 210 242 3,400 -840 Descending FlightAware
07:18PM 40.8170 -73.5320 306° West 211 243 3,300 -1,020 Descending FlightAware
07:18PM 40.8180 -73.5360 288° West 212 244 3,200 -780 Descending FlightAware
07:18PM 40.8190 -73.5400 288° West 211 243 3,200 -540 Level FlightAware
07:19PM 40.8200 -73.5500 278° West 209 241 3,100 -1,200 Descending FlightAware
07:19PM 40.8190 -73.5400 98° East 208 239 2,700 -540 Descending FlightAware
07:19PM 40.8030 -73.6080 253° West 208 239 2,700  Level FlightAware
07:20PM 40.7950 -73.6280 242° Southwest 190 219 2,700  Level FlightAware
07:20PM 40.7860 -73.6530 245° Southwest 181 208 2,700  Level FlightAware
07:20PM 40.7820 -73.6610 237° Southwest 184 212 2,700  Level FlightAware
07:20PM 40.7760 -73.6700 229° Southwest 184 212 2,700 -480 Level FlightAware
07:21PM 40.7630 -73.6830 217° Southwest 189 217 2,500 -900 Descending FlightAware
07:21PM 40.7470 -73.6960 212° Southwest 177 204 2,100 -1,080 Descending FlightAware
07:21PM 40.7350 -73.7040 207° Southwest 166 191 1,800 -900 Descending FlightAware
07:22PM 40.7200 -73.7140 207° Southwest 152 175 1,500 -780 Descending FlightAware
07:22PM 40.7050 -73.7250 209° Southwest 139 160 1,200 -840 Descending FlightAware
07:22PM 40.6940 -73.7330 209° Southwest 132 152 900 -780 Descending FlightAware
07:23PM 40.6830 -73.7410 209° Southwest 130 150 700 -780 Descending FlightAware
07:23PM 40.6720 -73.7480 206° Southwest 130 150 400 -900 Descending FlightAware
07:23PM 40.6680 -73.7500 201° Southwest 129 148 300 -780 Descending FlightAware
07:23PM 40.6640 -73.7530 210° Southwest 131 151 200 -780 Descending FlightAware
07:24PM 40.6530 -73.7610 209° Southwest 137 158 -600 Descending FlightAware
07:24PM 40.6420 -73.7700 212° Southwest 134 154  Level FlightAware
07:24PM 40.6330 -73.7770 211° Southwest 84 97  Level FlightAware